createdAt,value
2023-02-20T00:00:01.075Z,8.53
2023-02-20T00:05:09.697Z,8.20
2023-02-20T00:10:18.914Z,8.77
2023-02-20T00:15:26.877Z,8.40
2023-02-20T00:20:34.801Z,8.83
2023-02-20T00:25:43.594Z,9.07
2023-02-20T00:30:51.685Z,9.37
2023-02-20T00:35:58.200Z,9.53
2023-02-20T00:41:06.642Z,9.10
2023-02-20T00:46:19.080Z,9.27
2023-02-20T00:51:26.537Z,9.10
2023-02-20T00:56:47.819Z,8.87
2023-02-20T01:01:58.308Z,9.13
2023-02-20T01:07:06.912Z,8.93
2023-02-20T01:12:13.680Z,9.80
2023-02-20T01:17:24.661Z,9.10
2023-02-20T01:22:30.911Z,9.80
2023-02-20T01:27:43.898Z,9.60
2023-02-20T01:32:53.221Z,9.83
2023-02-20T01:37:59.302Z,9.47
2023-02-20T01:43:06.047Z,9.73
2023-02-20T01:48:27.128Z,9.83
2023-02-20T01:53:34.590Z,9.90
2023-02-20T01:58:45.691Z,10.17
2023-02-20T02:04:11.920Z,10.20
2023-02-20T02:09:24.119Z,11.63
2023-02-20T02:14:33.318Z,11.33
2023-02-20T02:20:13.026Z,7.20
2023-02-20T02:25:43.149Z,6.33
2023-02-20T02:31:32.277Z,2.10
2023-02-20T02:36:54.243Z,2.17
2023-02-20T02:42:10.819Z,1.10
2023-02-20T02:47:24.836Z,1.10
2023-02-20T02:52:49.006Z,1.13
2023-02-20T02:57:59.466Z,0.80
2023-02-20T03:03:12.301Z,1.03
2023-02-20T03:08:34.095Z,1.00
2023-02-20T03:14:00.281Z,1.10
2023-02-20T03:19:14.139Z,1.00
2023-02-20T03:24:54.634Z,1.10
2023-02-20T03:30:06.892Z,1.40
2023-02-20T03:35:31.904Z,1.33
2023-02-20T03:40:59.822Z,1.00
2023-02-20T03:46:12.293Z,1.20
2023-02-20T03:51:36.694Z,1.40
2023-02-20T03:56:55.988Z,1.23
2023-02-20T04:02:09.238Z,1.53
2023-02-20T04:07:24.463Z,1.77
2023-02-20T04:12:40.257Z,1.83
2023-02-20T04:17:53.235Z,1.50
2023-02-20T04:23:17.958Z,1.40
2023-02-20T04:28:30.580Z,1.70
2023-02-20T04:33:40.999Z,2.43
2023-02-20T04:38:52.639Z,2.00
2023-02-20T04:44:23.136Z,1.80
2023-02-20T04:49:29.608Z,1.97
2023-02-20T04:54:40.186Z,2.70
2023-02-20T04:59:52.383Z,2.40
2023-02-20T05:05:12.735Z,3.20
2023-02-20T05:25:17.422Z,3.10
2023-02-20T05:30:33.093Z,3.00
2023-02-20T05:35:42.363Z,2.90
2023-02-20T05:40:49.707Z,3.13
2023-02-20T05:45:54.797Z,3.00
2023-02-20T05:51:00.750Z,3.37
2023-02-20T05:56:10.675Z,3.40
2023-02-20T06:01:27.344Z,3.20
2023-02-20T06:06:35.795Z,2.97
2023-02-20T06:11:50.490Z,3.17
2023-02-20T06:16:57.858Z,2.97
2023-02-20T06:22:02.037Z,2.90
2023-02-20T06:27:10.447Z,4.60
2023-02-20T06:32:22.377Z,4.53
2023-02-20T06:37:33.623Z,3.40
2023-02-20T06:42:41.622Z,4.80
2023-02-20T06:47:48.517Z,3.60
2023-02-20T06:52:54.688Z,3.70
2023-02-20T06:58:03.021Z,3.50
2023-02-20T07:03:08.398Z,3.50
2023-02-20T07:08:12.826Z,3.40
2023-02-20T07:13:19.731Z,3.70
2023-02-20T07:18:28.013Z,3.70
2023-02-20T07:23:34.344Z,3.53
2023-02-20T07:28:41.090Z,3.50
2023-02-20T07:33:46.413Z,3.03
2023-02-20T07:38:58.660Z,2.60
2023-02-20T07:44:10.031Z,2.73
2023-02-20T07:49:20.742Z,2.27
2023-02-20T07:54:47.116Z,2.50
2023-02-20T07:59:54.647Z,2.60
2023-02-20T08:05:02.044Z,2.10
2023-02-20T08:10:13.812Z,1.97
2023-02-20T08:15:25.150Z,2.17
2023-02-20T08:20:33.910Z,1.80
2023-02-20T08:25:52.328Z,2.00
2023-02-20T08:31:30.876Z,2.17
2023-02-20T08:36:39.819Z,2.17
2023-02-20T08:41:47.174Z,2.00
2023-02-20T08:46:55.934Z,2.37
2023-02-20T08:52:07.889Z,2.20
2023-02-20T08:57:12.572Z,2.30
2023-02-20T09:02:31.199Z,2.73
2023-02-20T09:08:18.413Z,3.13
2023-02-20T09:13:23.878Z,2.70
2023-02-20T09:18:33.737Z,2.77
2023-02-20T09:23:38.235Z,2.70
2023-02-20T09:28:45.401Z,3.50
2023-02-20T09:33:51.890Z,3.67
2023-02-20T09:39:05.847Z,3.30
2023-02-20T09:44:15.711Z,3.77
2023-02-20T09:49:26.988Z,3.40
2023-02-20T09:54:37.285Z,3.33
2023-02-20T10:00:06.837Z,3.80
2023-02-20T10:05:28.783Z,3.40
2023-02-20T10:10:39.679Z,3.40
2023-02-20T10:15:54.465Z,3.97
2023-02-20T10:21:06.229Z,3.50
2023-02-20T10:26:17.041Z,3.20
2023-02-20T10:31:33.212Z,3.67
2023-02-20T10:36:56.452Z,3.87
2023-02-20T10:42:11.429Z,4.07
2023-02-20T10:47:24.846Z,3.70
2023-02-20T10:52:37.730Z,5.57
2023-02-20T10:57:47.957Z,4.43
2023-02-20T11:02:59.152Z,4.10
2023-02-20T11:08:04.762Z,4.23
2023-02-20T11:13:17.034Z,4.73
2023-02-20T11:18:28.509Z,5.07
2023-02-20T11:23:40.456Z,4.47
2023-02-20T11:28:46.378Z,5.07
2023-02-20T11:33:50.949Z,4.33
2023-02-20T11:39:08.492Z,4.87
2023-02-20T11:44:27.358Z,4.50
2023-02-20T11:49:31.780Z,4.90
2023-02-20T11:54:38.311Z,3.77
2023-02-20T11:59:44.116Z,4.10
2023-02-20T12:05:04.485Z,4.20
2023-02-20T12:10:23.460Z,4.00
2023-02-20T12:15:29.858Z,4.37
2023-02-20T12:20:37.083Z,4.00
2023-02-20T12:25:57.574Z,3.50
2023-02-20T12:31:14.317Z,3.80
2023-02-20T12:36:29.766Z,4.03
2023-02-20T12:41:48.299Z,3.73
2023-02-20T12:47:00.034Z,3.57
2023-02-20T12:52:17.653Z,3.23
2023-02-20T12:57:31.609Z,3.27
2023-02-20T13:02:42.524Z,3.17
2023-02-20T13:07:53.154Z,3.00
2023-02-20T13:12:59.282Z,3.07
2023-02-20T13:18:11.556Z,3.20
2023-02-20T13:23:30.055Z,3.17
2023-02-20T13:28:45.867Z,3.60
2023-02-20T13:33:51.592Z,3.50
2023-02-20T13:39:44.419Z,3.27
2023-02-20T13:50:37.833Z,3.80
2023-02-20T13:55:44.217Z,3.37
2023-02-20T14:00:56.337Z,3.73
2023-02-20T14:06:08.527Z,3.40
2023-02-20T14:11:17.025Z,3.33
2023-02-20T14:16:44.848Z,3.50
2023-02-20T14:21:56.538Z,3.50
2023-02-20T14:27:00.755Z,3.70
2023-02-20T14:32:09.964Z,3.60
2023-02-20T14:37:19.868Z,3.80
2023-02-20T14:42:26.899Z,3.93
2023-02-20T14:47:35.752Z,3.70
2023-02-20T14:52:40.297Z,3.30
2023-02-20T14:57:46.662Z,3.37
2023-02-20T15:02:55.579Z,3.30
2023-02-20T15:08:05.637Z,3.23
2023-02-20T15:13:11.900Z,3.03
2023-02-20T15:18:19.677Z,3.30
2023-02-20T15:23:29.374Z,3.30
2023-02-20T15:28:33.616Z,3.43
2023-02-20T15:33:41.822Z,3.03
2023-02-20T15:38:45.611Z,3.00
2023-02-20T15:43:51.538Z,2.43
2023-02-20T15:48:57.567Z,2.67
2023-02-20T15:54:01.572Z,2.47
2023-02-20T15:59:09.098Z,2.90
2023-02-20T16:04:17.629Z,2.60
2023-02-20T16:09:21.119Z,2.50
2023-02-20T16:14:24.853Z,2.60
2023-02-20T16:19:41.873Z,2.20
2023-02-20T16:24:47.227Z,2.10
2023-02-20T16:29:51.521Z,2.50
2023-02-20T16:34:58.960Z,2.30
2023-02-20T16:40:02.822Z,2.20
2023-02-20T16:45:13.172Z,2.60
2023-02-20T16:50:20.761Z,3.13
2023-02-20T16:55:26.894Z,3.80
2023-02-20T17:00:32.498Z,3.60
2023-02-20T17:05:39.626Z,4.80
2023-02-20T17:10:43.772Z,5.57
2023-02-20T17:15:48.077Z,7.23
2023-02-20T17:20:53.836Z,7.10
2023-02-20T17:25:58.092Z,6.63
2023-02-20T17:31:01.912Z,7.30
2023-02-20T17:36:26.288Z,6.47
2023-02-20T17:41:53.935Z,4.93
2023-02-20T17:48:18.851Z,5.13
2023-02-20T17:54:00.260Z,6.00
2023-02-20T18:00:14.289Z,4.90
2023-02-20T18:05:57.594Z,5.77
2023-02-20T18:11:22.582Z,6.23
2023-02-20T18:17:38.524Z,6.70
2023-02-20T18:23:26.677Z,6.43
2023-02-20T18:41:15.663Z,6.03
2023-02-20T18:46:39.949Z,6.20
2023-02-20T18:52:09.753Z,6.27
2023-02-20T18:57:35.392Z,5.67
2023-02-20T19:04:17.370Z,5.60
2023-02-20T19:09:45.216Z,5.70
2023-02-20T19:36:36.378Z,7.07
2023-02-20T19:41:55.461Z,8.10
2023-02-20T19:47:17.251Z,7.40
2023-02-20T19:52:27.117Z,6.33
2023-02-20T19:57:31.096Z,5.17
2023-02-20T20:02:35.292Z,5.17
2023-02-20T20:07:43.510Z,4.43
2023-02-20T20:12:50.368Z,4.77
2023-02-20T20:17:59.580Z,5.17
2023-02-20T20:23:06.706Z,5.00
2023-02-20T20:28:10.670Z,6.57
2023-02-20T20:33:14.507Z,5.33
2023-02-20T20:38:19.640Z,5.30
2023-02-20T20:43:23.368Z,6.03
2023-02-20T20:48:28.240Z,5.23
2023-02-20T20:53:34.430Z,6.00
2023-02-20T20:58:39.820Z,6.73
2023-02-20T21:03:44.053Z,5.90
2023-02-20T21:08:49.155Z,5.53
2023-02-20T21:13:53.177Z,5.80
2023-02-20T21:18:57.037Z,5.70
2023-02-20T21:24:02.736Z,5.77
2023-02-20T21:29:07.759Z,6.03
2023-02-20T21:34:15.295Z,5.13
2023-02-20T21:39:24.460Z,5.10
2023-02-20T21:44:29.215Z,4.93
2023-02-20T21:49:35.293Z,5.10
2023-02-20T21:54:42.663Z,5.70
2023-02-20T21:59:45.545Z,5.23
2023-02-20T22:04:48.278Z,5.47
2023-02-20T22:10:11.890Z,5.13
2023-02-20T22:15:35.859Z,5.17
2023-02-20T22:20:57.244Z,4.87
2023-02-20T22:26:25.301Z,5.00
2023-02-20T22:31:49.965Z,4.73
2023-02-20T22:37:11.022Z,4.80
2023-02-20T22:42:35.474Z,4.60
2023-02-20T22:47:56.437Z,4.70
2023-02-20T22:53:17.201Z,4.97
2023-02-20T22:58:39.620Z,4.67
2023-02-20T23:04:00.826Z,4.83
2023-02-20T23:09:21.875Z,4.50
2023-02-20T23:14:48.231Z,4.50
2023-02-20T23:20:10.903Z,5.07
2023-02-20T23:25:36.371Z,4.53
2023-02-20T23:30:59.862Z,5.50
2023-02-20T23:36:21.886Z,5.23
2023-02-20T23:41:47.260Z,4.87
2023-02-20T23:47:11.837Z,5.20
2023-02-20T23:52:33.788Z,5.23
2023-02-20T23:57:59.373Z,4.93
